sensor_id;sensor_type;location;lat;lon;timestamp;P1;durP1;ratioP1;P2;durP2;ratioP2
33403;SDS011;19751;40.274;18.268;2022-08-01T00:02:11;5.93;;;2.63;;
33403;SDS011;19751;40.274;18.268;2022-08-01T00:04:37;4.05;;;1.98;;
33403;SDS011;19751;40.274;18.268;2022-08-01T00:07:02;9.95;;;2.10;;
33403;SDS011;19751;40.274;18.268;2022-08-01T00:09:28;4.20;;;2.40;;
33403;SDS011;19751;40.274;18.268;2022-08-01T00:11:54;10.85;;;2.53;;
33403;SDS011;19751;40.274;18.268;2022-08-01T00:14:20;8.63;;;2.35;;
33403;SDS011;19751;40.274;18.268;2022-08-01T00:16:45;7.55;;;2.05;;
33403;SDS011;19751;40.274;18.268;2022-08-01T00:19:11;3.75;;;2.20;;
33403;SDS011;19751;40.274;18.268;2022-08-01T00:21:36;6.57;;;2.72;;
33403;SDS011;19751;40.274;18.268;2022-08-01T00:24:02;10.73;;;2.72;;
33403;SDS011;19751;40.274;18.268;2022-08-01T00:26:27;5.68;;;2.83;;
33403;SDS011;19751;40.274;18.268;2022-08-01T00:28:53;6.53;;;2.00;;
33403;SDS011;19751;40.274;18.268;2022-08-01T00:31:18;4.30;;;1.63;;
33403;SDS011;19751;40.274;18.268;2022-08-01T00:33:44;6.78;;;1.85;;
33403;SDS011;19751;40.274;18.268;2022-08-01T00:36:09;4.78;;;2.03;;
33403;SDS011;19751;40.274;18.268;2022-08-01T00:38:35;8.82;;;2.88;;
33403;SDS011;19751;40.274;18.268;2022-08-01T00:41:00;5.55;;;2.03;;
33403;SDS011;19751;40.274;18.268;2022-08-01T00:43:26;7.28;;;2.05;;
33403;SDS011;19751;40.274;18.268;2022-08-01T00:45:51;9.80;;;2.53;;
33403;SDS011;19751;40.274;18.268;2022-08-01T00:48:17;5.20;;;2.03;;
33403;SDS011;19751;40.274;18.268;2022-08-01T00:50:42;6.75;;;1.80;;
33403;SDS011;19751;40.274;18.268;2022-08-01T00:53:08;12.82;;;2.95;;
33403;SDS011;19751;40.274;18.268;2022-08-01T00:55:34;5.45;;;2.05;;
33403;SDS011;19751;40.274;18.268;2022-08-01T00:57:59;5.25;;;1.92;;
33403;SDS011;19751;40.274;18.268;2022-08-01T01:00:25;6.15;;;2.00;;
33403;SDS011;19751;40.274;18.268;2022-08-01T01:02:51;5.70;;;1.98;;
33403;SDS011;19751;40.274;18.268;2022-08-01T01:05:17;5.45;;;2.13;;
33403;SDS011;19751;40.274;18.268;2022-08-01T01:10:40;2.58;;;1.73;;
33403;SDS011;19751;40.274;18.268;2022-08-01T01:13:16;5.25;;;1.67;;
33403;SDS011;19751;40.274;18.268;2022-08-01T01:15:47;7.93;;;1.90;;
33403;SDS011;19751;40.274;18.268;2022-08-01T01:18:23;4.88;;;1.83;;
33403;SDS011;19751;40.274;18.268;2022-08-01T01:20:57;4.32;;;2.15;;
33403;SDS011;19751;40.274;18.268;2022-08-01T01:31:28;10.88;;;2.33;;
33403;SDS011;19751;40.274;18.268;2022-08-01T01:33:57;8.57;;;2.22;;
33403;SDS011;19751;40.274;18.268;2022-08-01T01:36:27;5.95;;;2.00;;
33403;SDS011;19751;40.274;18.268;2022-08-01T01:38:55;10.90;;;2.60;;
33403;SDS011;19751;40.274;18.268;2022-08-01T01:41:21;5.85;;;2.20;;
33403;SDS011;19751;40.274;18.268;2022-08-01T01:43:48;5.65;;;2.00;;
33403;SDS011;19751;40.274;18.268;2022-08-01T01:46:16;6.35;;;2.40;;
33403;SDS011;19751;40.274;18.268;2022-08-01T01:48:44;8.88;;;2.70;;
33403;SDS011;19751;40.274;18.268;2022-08-01T01:51:11;4.18;;;1.70;;
33403;SDS011;19751;40.274;18.268;2022-08-01T01:53:38;7.70;;;2.33;;
33403;SDS011;19751;40.274;18.268;2022-08-01T01:56:06;6.03;;;2.10;;
33403;SDS011;19751;40.274;18.268;2022-08-01T01:58:34;6.55;;;1.98;;
33403;SDS011;19751;40.274;18.268;2022-08-01T02:01:02;5.07;;;2.40;;
33403;SDS011;19751;40.274;18.268;2022-08-01T02:03:28;6.13;;;1.80;;
33403;SDS011;19751;40.274;18.268;2022-08-01T02:05:56;6.22;;;1.80;;
33403;SDS011;19751;40.274;18.268;2022-08-01T02:08:22;3.92;;;2.10;;
33403;SDS011;19751;40.274;18.268;2022-08-01T02:10:50;5.53;;;1.75;;
33403;SDS011;19751;40.274;18.268;2022-08-01T02:13:36;4.28;;;1.75;;
33403;SDS011;19751;40.274;18.268;2022-08-01T02:16:05;7.10;;;2.38;;
33403;SDS011;19751;40.274;18.268;2022-08-01T02:18:32;5.28;;;2.00;;
33403;SDS011;19751;40.274;18.268;2022-08-01T02:20:58;9.05;;;2.72;;
33403;SDS011;19751;40.274;18.268;2022-08-01T02:23:27;4.60;;;2.15;;
33403;SDS011;19751;40.274;18.268;2022-08-01T02:25:57;7.68;;;2.30;;
33403;SDS011;19751;40.274;18.268;2022-08-01T02:28:29;3.30;;;1.70;;
33403;SDS011;19751;40.274;18.268;2022-08-01T02:31:00;6.05;;;2.25;;
33403;SDS011;19751;40.274;18.268;2022-08-01T02:33:33;2.38;;;1.80;;
33403;SDS011;19751;40.274;18.268;2022-08-01T02:36:03;5.60;;;1.95;;
33403;SDS011;19751;40.274;18.268;2022-08-01T02:38:31;4.18;;;2.20;;
33403;SDS011;19751;40.274;18.268;2022-08-01T02:41:07;8.93;;;2.10;;
33403;SDS011;19751;40.274;18.268;2022-08-01T02:43:38;5.50;;;2.25;;
33403;SDS011;19751;40.274;18.268;2022-08-01T02:46:08;6.53;;;1.80;;
33403;SDS011;19751;40.274;18.268;2022-08-01T02:48:41;3.37;;;1.97;;
33403;SDS011;19751;40.274;18.268;2022-08-01T02:51:08;3.78;;;2.05;;
33403;SDS011;19751;40.274;18.268;2022-08-01T02:53:36;6.50;;;2.53;;
33403;SDS011;19751;40.274;18.268;2022-08-01T02:56:06;3.17;;;1.85;;
33403;SDS011;19751;40.274;18.268;2022-08-01T02:58:35;4.13;;;2.10;;
33403;SDS011;19751;40.274;18.268;2022-08-01T03:01:03;5.00;;;2.15;;
33403;SDS011;19751;40.274;18.268;2022-08-01T03:03:31;5.13;;;2.28;;
33403;SDS011;19751;40.274;18.268;2022-08-01T03:05:57;6.40;;;2.08;;
33403;SDS011;19751;40.274;18.268;2022-08-01T03:08:24;7.13;;;2.50;;
33403;SDS011;19751;40.274;18.268;2022-08-01T03:10:50;4.93;;;2.08;;
33403;SDS011;19751;40.274;18.268;2022-08-01T03:13:18;4.90;;;2.00;;
33403;SDS011;19751;40.274;18.268;2022-08-01T03:15:47;9.60;;;2.63;;
33403;SDS011;19751;40.274;18.268;2022-08-01T03:18:14;5.28;;;2.35;;
33403;SDS011;19751;40.274;18.268;2022-08-01T03:20:41;5.32;;;2.30;;
33403;SDS011;19751;40.274;18.268;2022-08-01T03:23:08;5.13;;;1.90;;
33403;SDS011;19751;40.274;18.268;2022-08-01T03:25:37;4.57;;;2.38;;
33403;SDS011;19751;40.274;18.268;2022-08-01T03:28:05;6.97;;;2.55;;
33403;SDS011;19751;40.274;18.268;2022-08-01T03:30:32;3.67;;;2.05;;
33403;SDS011;19751;40.274;18.268;2022-08-01T03:33:00;3.33;;;2.03;;
33403;SDS011;19751;40.274;18.268;2022-08-01T03:35:52;5.30;;;2.25;;
33403;SDS011;19751;40.274;18.268;2022-08-01T03:38:19;6.93;;;2.40;;
33403;SDS011;19751;40.274;18.268;2022-08-01T03:43:56;4.97;;;2.25;;
33403;SDS011;19751;40.274;18.268;2022-08-01T03:46:30;6.43;;;1.92;;
33403;SDS011;19751;40.274;18.268;2022-08-01T03:49:22;4.03;;;2.13;;
33403;SDS011;19751;40.274;18.268;2022-08-01T03:51:51;8.45;;;2.42;;
33403;SDS011;19751;40.274;18.268;2022-08-01T03:54:23;3.08;;;2.03;;
33403;SDS011;19751;40.274;18.268;2022-08-01T03:56:52;10.63;;;2.03;;
33403;SDS011;19751;40.274;18.268;2022-08-01T03:59:18;7.47;;;2.28;;
33403;SDS011;19751;40.274;18.268;2022-08-01T04:01:45;6.32;;;2.60;;
33403;SDS011;19751;40.274;18.268;2022-08-01T04:04:12;6.90;;;2.40;;
33403;SDS011;19751;40.274;18.268;2022-08-01T04:06:38;4.28;;;2.03;;
33403;SDS011;19751;40.274;18.268;2022-08-01T04:09:09;6.32;;;2.53;;
33403;SDS011;19751;40.274;18.268;2022-08-01T04:11:37;8.65;;;2.55;;
33403;SDS011;19751;40.274;18.268;2022-08-01T04:14:02;3.70;;;2.13;;
33403;SDS011;19751;40.274;18.268;2022-08-01T04:16:30;5.22;;;2.67;;
33403;SDS011;19751;40.274;18.268;2022-08-01T04:18:56;5.10;;;2.33;;
33403;SDS011;19751;40.274;18.268;2022-08-01T04:21:25;15.77;;;3.28;;
33403;SDS011;19751;40.274;18.268;2022-08-01T04:23:54;8.52;;;2.67;;
33403;SDS011;19751;40.274;18.268;2022-08-01T04:26:23;7.03;;;2.45;;
33403;SDS011;19751;40.274;18.268;2022-08-01T04:28:50;6.28;;;3.17;;
33403;SDS011;19751;40.274;18.268;2022-08-01T04:31:19;5.05;;;2.28;;
33403;SDS011;19751;40.274;18.268;2022-08-01T04:33:47;5.50;;;1.90;;
33403;SDS011;19751;40.274;18.268;2022-08-01T04:36:15;5.53;;;2.20;;
33403;SDS011;19751;40.274;18.268;2022-08-01T04:38:45;3.78;;;2.10;;
33403;SDS011;19751;40.274;18.268;2022-08-01T04:41:12;4.15;;;3.03;;
33403;SDS011;19751;40.274;18.268;2022-08-01T04:43:38;7.32;;;3.00;;
33403;SDS011;19751;40.274;18.268;2022-08-01T04:46:05;5.63;;;2.78;;
33403;SDS011;19751;40.274;18.268;2022-08-01T04:48:32;7.63;;;2.45;;
33403;SDS011;19751;40.274;18.268;2022-08-01T04:50:59;5.47;;;3.05;;
33403;SDS011;19751;40.274;18.268;2022-08-01T04:53:25;9.82;;;3.88;;
33403;SDS011;19751;40.274;18.268;2022-08-01T04:55:51;6.50;;;3.08;;
33403;SDS011;19751;40.274;18.268;2022-08-01T04:58:17;5.65;;;3.30;;
33403;SDS011;19751;40.274;18.268;2022-08-01T05:00:42;8.43;;;4.00;;
33403;SDS011;19751;40.274;18.268;2022-08-01T05:03:08;5.90;;;3.38;;
33403;SDS011;19751;40.274;18.268;2022-08-01T05:05:34;4.78;;;3.40;;
33403;SDS011;19751;40.274;18.268;2022-08-01T05:08:00;4.20;;;3.60;;
33403;SDS011;19751;40.274;18.268;2022-08-01T05:10:25;5.40;;;3.95;;
33403;SDS011;19751;40.274;18.268;2022-08-01T05:12:58;7.57;;;4.28;;
33403;SDS011;19751;40.274;18.268;2022-08-01T05:15:24;7.38;;;4.65;;
33403;SDS011;19751;40.274;18.268;2022-08-01T05:17:50;5.10;;;4.05;;
33403;SDS011;19751;40.274;18.268;2022-08-01T05:20:15;6.70;;;4.60;;
33403;SDS011;19751;40.274;18.268;2022-08-01T05:22:41;5.25;;;4.40;;
33403;SDS011;19751;40.274;18.268;2022-08-01T05:25:07;5.35;;;3.95;;
33403;SDS011;19751;40.274;18.268;2022-08-01T05:27:33;8.20;;;3.72;;
33403;SDS011;19751;40.274;18.268;2022-08-01T05:30:05;5.53;;;4.35;;
33403;SDS011;19751;40.274;18.268;2022-08-01T05:32:32;7.85;;;4.75;;
33403;SDS011;19751;40.274;18.268;2022-08-01T05:34:58;6.93;;;4.80;;
33403;SDS011;19751;40.274;18.268;2022-08-01T05:37:24;5.30;;;4.40;;
33403;SDS011;19751;40.274;18.268;2022-08-01T05:39:50;10.98;;;4.65;;
33403;SDS011;19751;40.274;18.268;2022-08-01T05:42:15;4.65;;;4.15;;
33403;SDS011;19751;40.274;18.268;2022-08-01T05:44:41;9.70;;;5.05;;
33403;SDS011;19751;40.274;18.268;2022-08-01T05:47:07;6.55;;;4.30;;
33403;SDS011;19751;40.274;18.268;2022-08-01T05:49:32;8.93;;;4.90;;
33403;SDS011;19751;40.274;18.268;2022-08-01T05:51:59;7.43;;;4.70;;
33403;SDS011;19751;40.274;18.268;2022-08-01T05:54:34;6.47;;;5.35;;
33403;SDS011;19751;40.274;18.268;2022-08-01T05:56:59;6.68;;;6.00;;
33403;SDS011;19751;40.274;18.268;2022-08-01T05:59:26;7.50;;;6.38;;
33403;SDS011;19751;40.274;18.268;2022-08-01T06:01:57;7.70;;;4.90;;
33403;SDS011;19751;40.274;18.268;2022-08-01T06:04:23;7.82;;;5.20;;
33403;SDS011;19751;40.274;18.268;2022-08-01T06:06:49;7.28;;;4.88;;
33403;SDS011;19751;40.274;18.268;2022-08-01T06:09:14;6.10;;;5.50;;
33403;SDS011;19751;40.274;18.268;2022-08-01T06:11:40;5.30;;;4.72;;
33403;SDS011;19751;40.274;18.268;2022-08-01T06:14:06;6.35;;;4.90;;
33403;SDS011;19751;40.274;18.268;2022-08-01T06:16:31;6.15;;;5.18;;
33403;SDS011;19751;40.274;18.268;2022-08-01T06:18:57;6.72;;;4.93;;
33403;SDS011;19751;40.274;18.268;2022-08-01T06:21:23;5.65;;;4.72;;
33403;SDS011;19751;40.274;18.268;2022-08-01T06:23:48;5.80;;;4.80;;
33403;SDS011;19751;40.274;18.268;2022-08-01T06:26:16;5.82;;;4.75;;
33403;SDS011;19751;40.274;18.268;2022-08-01T06:28:42;9.73;;;4.88;;
33403;SDS011;19751;40.274;18.268;2022-08-01T06:31:08;7.70;;;4.60;;
33403;SDS011;19751;40.274;18.268;2022-08-01T06:33:35;13.50;;;5.65;;
33403;SDS011;19751;40.274;18.268;2022-08-01T06:36:00;9.15;;;4.30;;
33403;SDS011;19751;40.274;18.268;2022-08-01T06:38:25;7.97;;;4.07;;
33403;SDS011;19751;40.274;18.268;2022-08-01T06:40:51;14.05;;;5.32;;
33403;SDS011;19751;40.274;18.268;2022-08-01T06:43:17;59.20;;;10.23;;
33403;SDS011;19751;40.274;18.268;2022-08-01T06:45:43;14.85;;;5.10;;
33403;SDS011;19751;40.274;18.268;2022-08-01T06:48:09;7.05;;;5.10;;
33403;SDS011;19751;40.274;18.268;2022-08-01T06:50:34;9.55;;;4.20;;
33403;SDS011;19751;40.274;18.268;2022-08-01T06:53:01;6.45;;;3.78;;
33403;SDS011;19751;40.274;18.268;2022-08-01T06:55:27;5.18;;;3.50;;
33403;SDS011;19751;40.274;18.268;2022-08-01T06:57:52;8.57;;;3.42;;
33403;SDS011;19751;40.274;18.268;2022-08-01T07:00:18;7.68;;;3.67;;
33403;SDS011;19751;40.274;18.268;2022-08-01T07:02:48;5.13;;;3.40;;
33403;SDS011;19751;40.274;18.268;2022-08-01T07:05:17;9.57;;;4.10;;
33403;SDS011;19751;40.274;18.268;2022-08-01T07:07:42;12.25;;;4.15;;
33403;SDS011;19751;40.274;18.268;2022-08-01T07:10:08;9.60;;;4.03;;
33403;SDS011;19751;40.274;18.268;2022-08-01T07:12:34;7.13;;;3.55;;
33403;SDS011;19751;40.274;18.268;2022-08-01T07:15:04;6.40;;;3.38;;
33403;SDS011;19751;40.274;18.268;2022-08-01T07:17:30;4.93;;;3.65;;
33403;SDS011;19751;40.274;18.268;2022-08-01T07:19:56;7.43;;;4.05;;
33403;SDS011;19751;40.274;18.268;2022-08-01T07:22:21;8.50;;;3.83;;
33403;SDS011;19751;40.274;18.268;2022-08-01T07:24:47;7.13;;;4.18;;
33403;SDS011;19751;40.274;18.268;2022-08-01T07:27:12;6.57;;;4.05;;
33403;SDS011;19751;40.274;18.268;2022-08-01T07:29:38;8.70;;;3.50;;
33403;SDS011;19751;40.274;18.268;2022-08-01T07:32:03;6.13;;;3.22;;
33403;SDS011;19751;40.274;18.268;2022-08-01T07:34:29;5.30;;;3.47;;
33403;SDS011;19751;40.274;18.268;2022-08-01T07:36:55;10.13;;;3.75;;
33403;SDS011;19751;40.274;18.268;2022-08-01T07:39:20;6.32;;;4.28;;
33403;SDS011;19751;40.274;18.268;2022-08-01T07:41:46;7.55;;;3.95;;
33403;SDS011;19751;40.274;18.268;2022-08-01T07:44:11;8.55;;;3.28;;
33403;SDS011;19751;40.274;18.268;2022-08-01T07:46:37;4.38;;;3.17;;
33403;SDS011;19751;40.274;18.268;2022-08-01T07:49:02;8.60;;;3.88;;
33403;SDS011;19751;40.274;18.268;2022-08-01T07:51:28;6.60;;;3.75;;
33403;SDS011;19751;40.274;18.268;2022-08-01T07:53:53;6.90;;;3.67;;
33403;SDS011;19751;40.274;18.268;2022-08-01T07:56:19;4.28;;;3.17;;
33403;SDS011;19751;40.274;18.268;2022-08-01T07:58:44;5.97;;;4.05;;
33403;SDS011;19751;40.274;18.268;2022-08-01T08:01:11;7.57;;;3.75;;
33403;SDS011;19751;40.274;18.268;2022-08-01T08:03:37;9.00;;;3.08;;
33403;SDS011;19751;40.274;18.268;2022-08-01T08:06:02;5.43;;;3.35;;
33403;SDS011;19751;40.274;18.268;2022-08-01T08:08:28;6.03;;;3.50;;
33403;SDS011;19751;40.274;18.268;2022-08-01T08:10:54;4.80;;;3.30;;
33403;SDS011;19751;40.274;18.268;2022-08-01T08:13:19;10.93;;;3.50;;
33403;SDS011;19751;40.274;18.268;2022-08-01T08:15:45;7.13;;;3.90;;
33403;SDS011;19751;40.274;18.268;2022-08-01T08:18:11;5.55;;;3.88;;
33403;SDS011;19751;40.274;18.268;2022-08-01T08:20:36;9.50;;;3.53;;
33403;SDS011;19751;40.274;18.268;2022-08-01T08:23:02;9.68;;;3.42;;
33403;SDS011;19751;40.274;18.268;2022-08-01T08:25:47;4.60;;;2.90;;
33403;SDS011;19751;40.274;18.268;2022-08-01T08:28:13;6.15;;;3.10;;
33403;SDS011;19751;40.274;18.268;2022-08-01T08:30:38;5.43;;;3.17;;
33403;SDS011;19751;40.274;18.268;2022-08-01T08:33:04;5.30;;;2.83;;
33403;SDS011;19751;40.274;18.268;2022-08-01T08:35:29;6.05;;;3.25;;
33403;SDS011;19751;40.274;18.268;2022-08-01T08:37:55;6.60;;;3.00;;
33403;SDS011;19751;40.274;18.268;2022-08-01T08:40:20;5.00;;;3.40;;
33403;SDS011;19751;40.274;18.268;2022-08-01T08:42:49;6.30;;;3.38;;
33403;SDS011;19751;40.274;18.268;2022-08-01T08:45:15;4.07;;;3.08;;
33403;SDS011;19751;40.274;18.268;2022-08-01T08:47:41;4.95;;;3.53;;
33403;SDS011;19751;40.274;18.268;2022-08-01T08:50:08;7.10;;;2.75;;
33403;SDS011;19751;40.274;18.268;2022-08-01T08:52:35;4.28;;;2.70;;
33403;SDS011;19751;40.274;18.268;2022-08-01T08:55:03;4.90;;;2.85;;
33403;SDS011;19751;40.274;18.268;2022-08-01T08:57:29;7.72;;;2.60;;
33403;SDS011;19751;40.274;18.268;2022-08-01T08:59:55;5.90;;;2.67;;
33403;SDS011;19751;40.274;18.268;2022-08-01T09:02:22;4.57;;;2.20;;
33403;SDS011;19751;40.274;18.268;2022-08-01T09:04:48;5.30;;;3.03;;
33403;SDS011;19751;40.274;18.268;2022-08-01T09:07:14;11.60;;;2.90;;
33403;SDS011;19751;40.274;18.268;2022-08-01T09:09:39;4.32;;;2.45;;
33403;SDS011;19751;40.274;18.268;2022-08-01T09:12:05;9.57;;;2.70;;
33403;SDS011;19751;40.274;18.268;2022-08-01T09:14:31;4.68;;;2.65;;
33403;SDS011;19751;40.274;18.268;2022-08-01T09:19:36;4.60;;;2.90;;
33403;SDS011;19751;40.274;18.268;2022-08-01T09:22:10;7.57;;;2.95;;
33403;SDS011;19751;40.274;18.268;2022-08-01T09:24:38;4.55;;;2.58;;
33403;SDS011;19751;40.274;18.268;2022-08-01T09:27:15;10.23;;;2.67;;
33403;SDS011;19751;40.274;18.268;2022-08-01T09:29:42;7.57;;;2.45;;
33403;SDS011;19751;40.274;18.268;2022-08-01T09:32:09;6.13;;;2.38;;
33403;SDS011;19751;40.274;18.268;2022-08-01T09:34:35;8.13;;;2.63;;
33403;SDS011;19751;40.274;18.268;2022-08-01T09:37:01;4.25;;;2.25;;
33403;SDS011;19751;40.274;18.268;2022-08-01T09:39:31;6.13;;;2.15;;
33403;SDS011;19751;40.274;18.268;2022-08-01T09:42:01;7.88;;;2.65;;
33403;SDS011;19751;40.274;18.268;2022-08-01T09:44:44;6.78;;;2.33;;
33403;SDS011;19751;40.274;18.268;2022-08-01T09:47:11;6.85;;;2.88;;
33403;SDS011;19751;40.274;18.268;2022-08-01T09:49:38;7.13;;;2.60;;
33403;SDS011;19751;40.274;18.268;2022-08-01T09:54:36;6.65;;;2.35;;
33403;SDS011;19751;40.274;18.268;2022-08-01T09:57:08;3.88;;;2.17;;
33403;SDS011;19751;40.274;18.268;2022-08-01T09:59:38;4.63;;;2.47;;
33403;SDS011;19751;40.274;18.268;2022-08-01T10:02:07;3.30;;;2.00;;
33403;SDS011;19751;40.274;18.268;2022-08-01T10:04:51;4.57;;;2.20;;
33403;SDS011;19751;40.274;18.268;2022-08-01T10:07:17;5.75;;;1.92;;
33403;SDS011;19751;40.274;18.268;2022-08-01T10:09:44;7.32;;;2.00;;
33403;SDS011;19751;40.274;18.268;2022-08-01T10:12:14;2.60;;;2.13;;
33403;SDS011;19751;40.274;18.268;2022-08-01T10:14:42;3.00;;;2.00;;
33403;SDS011;19751;40.274;18.268;2022-08-01T10:17:11;2.17;;;1.88;;
33403;SDS011;19751;40.274;18.268;2022-08-01T10:19:39;2.33;;;1.80;;
33403;SDS011;19751;40.274;18.268;2022-08-01T10:22:10;6.35;;;3.20;;
33403;SDS011;19751;40.274;18.268;2022-08-01T10:24:39;2.17;;;1.92;;
33403;SDS011;19751;40.274;18.268;2022-08-01T10:27:06;2.00;;;1.70;;
33403;SDS011;19751;40.274;18.268;2022-08-01T10:32:07;3.92;;;1.73;;
33403;SDS011;19751;40.274;18.268;2022-08-01T10:34:34;3.88;;;1.65;;
33403;SDS011;19751;40.274;18.268;2022-08-01T10:37:01;2.13;;;1.45;;
33403;SDS011;19751;40.274;18.268;2022-08-01T10:39:27;3.67;;;1.95;;
33403;SDS011;19751;40.274;18.268;2022-08-01T10:41:55;2.30;;;1.50;;
33403;SDS011;19751;40.274;18.268;2022-08-01T10:44:21;5.20;;;1.73;;
33403;SDS011;19751;40.274;18.268;2022-08-01T10:46:50;1.60;;;1.50;;
33403;SDS011;19751;40.274;18.268;2022-08-01T10:49:20;7.00;;;1.98;;
33403;SDS011;19751;40.274;18.268;2022-08-01T10:51:50;3.88;;;2.00;;
33403;SDS011;19751;40.274;18.268;2022-08-01T10:54:15;5.18;;;2.05;;
33403;SDS011;19751;40.274;18.268;2022-08-01T10:56:44;3.08;;;2.10;;
33403;SDS011;19751;40.274;18.268;2022-08-01T10:59:30;3.67;;;2.47;;
33403;SDS011;19751;40.274;18.268;2022-08-01T11:04:32;7.07;;;2.70;;
33403;SDS011;19751;40.274;18.268;2022-08-01T11:07:08;4.57;;;3.20;;
33403;SDS011;19751;40.274;18.268;2022-08-01T11:09:45;8.23;;;2.50;;
33403;SDS011;19751;40.274;18.268;2022-08-01T11:20:07;1.90;;;1.80;;
33403;SDS011;19751;40.274;18.268;2022-08-01T11:23:18;2.70;;;1.77;;
33403;SDS011;19751;40.274;18.268;2022-08-01T11:30:45;3.88;;;1.45;;
33403;SDS011;19751;40.274;18.268;2022-08-01T11:33:11;2.30;;;1.55;;
33403;SDS011;19751;40.274;18.268;2022-08-01T11:35:38;5.07;;;1.42;;
33403;SDS011;19751;40.274;18.268;2022-08-01T11:38:35;1.65;;;1.33;;
33403;SDS011;19751;40.274;18.268;2022-08-01T11:41:15;5.57;;;1.48;;
33403;SDS011;19751;40.274;18.268;2022-08-01T11:54:31;8.55;;;2.15;;
33403;SDS011;19751;40.274;18.268;2022-08-01T11:57:00;3.67;;;1.17;;
33403;SDS011;19751;40.274;18.268;2022-08-01T11:59:27;3.33;;;1.38;;
33403;SDS011;19751;40.274;18.268;2022-08-01T12:01:53;3.40;;;1.60;;
33403;SDS011;19751;40.274;18.268;2022-08-01T12:04:19;7.88;;;1.50;;
33403;SDS011;19751;40.274;18.268;2022-08-01T12:07:12;3.08;;;1.30;;
33403;SDS011;19751;40.274;18.268;2022-08-01T12:09:40;4.30;;;1.90;;
33403;SDS011;19751;40.274;18.268;2022-08-01T12:12:06;1.92;;;1.52;;
33403;SDS011;19751;40.274;18.268;2022-08-01T12:14:32;1.80;;;1.48;;
33403;SDS011;19751;40.274;18.268;2022-08-01T12:16:57;4.03;;;1.92;;
33403;SDS011;19751;40.274;18.268;2022-08-01T12:19:24;1.63;;;1.50;;
33403;SDS011;19751;40.274;18.268;2022-08-01T12:22:05;4.60;;;2.13;;
33403;SDS011;19751;40.274;18.268;2022-08-01T12:24:35;2.05;;;1.75;;
33403;SDS011;19751;40.274;18.268;2022-08-01T12:27:02;3.85;;;1.95;;
33403;SDS011;19751;40.274;18.268;2022-08-01T12:29:32;6.97;;;1.70;;
33403;SDS011;19751;40.274;18.268;2022-08-01T12:32:01;4.40;;;1.80;;
33403;SDS011;19751;40.274;18.268;2022-08-01T12:34:28;3.80;;;2.20;;
33403;SDS011;19751;40.274;18.268;2022-08-01T12:36:55;3.75;;;2.40;;
33403;SDS011;19751;40.274;18.268;2022-08-01T12:39:29;2.42;;;1.90;;
33403;SDS011;19751;40.274;18.268;2022-08-01T12:41:56;3.10;;;2.20;;
33403;SDS011;19751;40.274;18.268;2022-08-01T12:44:22;9.35;;;2.83;;
33403;SDS011;19751;40.274;18.268;2022-08-01T12:46:47;3.90;;;1.95;;
33403;SDS011;19751;40.274;18.268;2022-08-01T12:49:13;4.72;;;1.90;;
33403;SDS011;19751;40.274;18.268;2022-08-01T12:51:39;1.95;;;1.70;;
33403;SDS011;19751;40.274;18.268;2022-08-01T12:54:05;3.45;;;2.22;;
33403;SDS011;19751;40.274;18.268;2022-08-01T12:56:34;2.10;;;1.88;;
33403;SDS011;19751;40.274;18.268;2022-08-01T12:59:00;5.55;;;2.30;;
33403;SDS011;19751;40.274;18.268;2022-08-01T13:01:27;3.88;;;1.92;;
33403;SDS011;19751;40.274;18.268;2022-08-01T13:04:03;2.03;;;1.80;;
33403;SDS011;19751;40.274;18.268;2022-08-01T13:06:31;2.22;;;1.88;;
33403;SDS011;19751;40.274;18.268;2022-08-01T13:09:10;3.88;;;2.13;;
33403;SDS011;19751;40.274;18.268;2022-08-01T13:11:36;6.57;;;2.55;;
33403;SDS011;19751;40.274;18.268;2022-08-01T13:14:02;3.13;;;2.05;;
33403;SDS011;19751;40.274;18.268;2022-08-01T13:16:28;2.58;;;1.85;;
33403;SDS011;19751;40.274;18.268;2022-08-01T13:18:55;5.78;;;2.42;;
33403;SDS011;19751;40.274;18.268;2022-08-01T13:21:26;2.15;;;1.80;;
33403;SDS011;19751;40.274;18.268;2022-08-01T13:24:08;3.97;;;2.45;;
33403;SDS011;19751;40.274;18.268;2022-08-01T13:29:04;3.35;;;2.60;;
33403;SDS011;19751;40.274;18.268;2022-08-01T13:31:32;3.63;;;2.28;;
33403;SDS011;19751;40.274;18.268;2022-08-01T13:33:59;2.83;;;2.15;;
33403;SDS011;19751;40.274;18.268;2022-08-01T13:36:24;1.88;;;1.60;;
33403;SDS011;19751;40.274;18.268;2022-08-01T13:38:52;2.47;;;1.90;;
33403;SDS011;19751;40.274;18.268;2022-08-01T13:44:02;2.47;;;1.58;;
33403;SDS011;19751;40.274;18.268;2022-08-01T13:46:27;1.85;;;1.63;;
33403;SDS011;19751;40.274;18.268;2022-08-01T13:48:53;1.75;;;1.50;;
33403;SDS011;19751;40.274;18.268;2022-08-01T13:51:18;2.08;;;1.45;;
33403;SDS011;19751;40.274;18.268;2022-08-01T13:53:44;2.53;;;2.00;;
33403;SDS011;19751;40.274;18.268;2022-08-01T13:56:10;1.95;;;1.60;;
33403;SDS011;19751;40.274;18.268;2022-08-01T13:58:36;3.13;;;1.88;;
33403;SDS011;19751;40.274;18.268;2022-08-01T14:01:01;2.97;;;2.08;;
33403;SDS011;19751;40.274;18.268;2022-08-01T14:03:27;3.88;;;1.52;;
33403;SDS011;19751;40.274;18.268;2022-08-01T14:05:53;3.88;;;1.55;;
33403;SDS011;19751;40.274;18.268;2022-08-01T14:08:18;1.73;;;1.40;;
33403;SDS011;19751;40.274;18.268;2022-08-01T14:10:44;5.97;;;1.23;;
33403;SDS011;19751;40.274;18.268;2022-08-01T14:13:09;1.58;;;1.48;;
33403;SDS011;19751;40.274;18.268;2022-08-01T14:15:35;3.17;;;1.33;;
33403;SDS011;19751;40.274;18.268;2022-08-01T14:18:01;1.38;;;1.20;;
33403;SDS011;19751;40.274;18.268;2022-08-01T14:20:26;3.97;;;1.15;;
33403;SDS011;19751;40.274;18.268;2022-08-01T14:22:52;4.53;;;1.20;;
33403;SDS011;19751;40.274;18.268;2022-08-01T14:25:18;3.55;;;0.77;;
33403;SDS011;19751;40.274;18.268;2022-08-01T14:27:43;3.25;;;1.50;;
33403;SDS011;19751;40.274;18.268;2022-08-01T14:30:10;1.52;;;1.40;;
33403;SDS011;19751;40.274;18.268;2022-08-01T14:32:37;3.65;;;1.30;;
33403;SDS011;19751;40.274;18.268;2022-08-01T14:35:03;2.03;;;1.20;;
33403;SDS011;19751;40.274;18.268;2022-08-01T14:37:31;3.42;;;1.40;;
33403;SDS011;19751;40.274;18.268;2022-08-01T14:39:57;1.58;;;1.23;;
33403;SDS011;19751;40.274;18.268;2022-08-01T14:42:25;1.98;;;1.67;;
33403;SDS011;19751;40.274;18.268;2022-08-01T14:44:51;3.15;;;1.38;;
33403;SDS011;19751;40.274;18.268;2022-08-01T14:47:16;3.08;;;1.42;;
33403;SDS011;19751;40.274;18.268;2022-08-01T14:49:42;3.47;;;1.55;;
33403;SDS011;19751;40.274;18.268;2022-08-01T14:52:07;5.18;;;1.40;;
33403;SDS011;19751;40.274;18.268;2022-08-01T14:54:33;4.78;;;1.20;;
33403;SDS011;19751;40.274;18.268;2022-08-01T14:56:58;9.32;;;1.45;;
33403;SDS011;19751;40.274;18.268;2022-08-01T14:59:24;2.20;;;1.52;;
33403;SDS011;19751;40.274;18.268;2022-08-01T15:01:50;7.90;;;1.63;;
33403;SDS011;19751;40.274;18.268;2022-08-01T15:04:15;3.90;;;1.58;;
33403;SDS011;19751;40.274;18.268;2022-08-01T15:06:42;6.68;;;1.80;;
33403;SDS011;19751;40.274;18.268;2022-08-01T15:09:08;3.30;;;1.90;;
33403;SDS011;19751;40.274;18.268;2022-08-01T15:11:34;3.88;;;1.30;;
33403;SDS011;19751;40.274;18.268;2022-08-01T15:13:59;2.85;;;1.70;;
33403;SDS011;19751;40.274;18.268;2022-08-01T15:16:44;3.95;;;1.35;;
33403;SDS011;19751;40.274;18.268;2022-08-01T15:19:09;2.63;;;1.58;;
33403;SDS011;19751;40.274;18.268;2022-08-01T15:21:35;2.35;;;1.48;;
33403;SDS011;19751;40.274;18.268;2022-08-01T15:24:00;2.10;;;1.58;;
33403;SDS011;19751;40.274;18.268;2022-08-01T15:26:25;3.70;;;2.10;;
33403;SDS011;19751;40.274;18.268;2022-08-01T15:28:52;3.10;;;1.60;;
33403;SDS011;19751;40.274;18.268;2022-08-01T15:31:18;5.40;;;1.75;;